PORTS® Data Listing: 9414523 Redwood City, CA

CO-OPS RAW PORTS DATA

************************      PRELIMINARY DATA      ************************** 

     THIS RAW DATA HAS NOT BEEN SUBJECT TO THE NATIONAL OCEAN SERVICE'S        
     QUALITY CONTROL OR QUALITY ASSURANCE PROCEDURES AND DOES NOT MEET         
     THE CRITERIA AND STANDARDS OF OFFICIAL NATIONAL OCEAN SERVICE             
     DATA.  IT IS RELEASED FOR LIMITED PUBLIC USE AS PRELIMINARY DATA TO       
     BE USED ONLY WITH APPROPRIATE CAUTION.                                    

************************      PRELIMINARY DATA      ************************** 


       CD   -   Calendar date
       T    -   Time
       TZ   -   Timezone
       PW   -   Predicted water level (feet above MLLW)
       OW   -   Observed water level (feet above MLLW)
       WS   -   Wind speed (knots)
       WD   -   Wind direction (degrees true)
       WG   -   Wind gust (knots)
       AT   -   Air temperature (degrees farenheit)
       WT   -   Water temperature (degrees farenheit)
       AP   -   Air pressure (millibars)
       SA   -   Salinty (PSU - Practical Salinity Units)
       SG   -   Specific gravity
       RH   -   Relative humidity
       AG   -   Air gap (feet)
       VI   -   Visibility (nautical miles)

       ** NOTE **
       A variable that has its data fields filled with "9"s, indicates that
       data was not collected for that sample period.
       **********


STATION NAME: Redwood City (9414523)
****************************************************************************************************
    CD       T    TZ    PW     OW    WS   WD   WG    AT    WT    AP    SA    SG     RH    AG   VI
****************************************************************************************************
2019/09/21 09:36 PDT    4.53   4.68    1   93    3  69.3  71.8 1015.8 -9.9 -9.999 -99.9 -99.99 -9.99
2019/09/21 09:42 PDT    4.45   4.60    2  106    3  70.2  71.8 1015.7 -9.9 -9.999 -99.9 -99.99 -9.99
2019/09/21 09:48 PDT    4.38   4.52    2  168    3  70.3  71.8 1015.7 -9.9 -9.999 -99.9 -99.99 -9.99
2019/09/21 09:54 PDT    4.31   4.46    1  139    3  71.4  71.8 1015.6 -9.9 -9.999 -99.9 -99.99 -9.99
2019/09/21 10:00 PDT    4.23   4.39    2  103    3  71.8  71.8 1015.6 -9.9 -9.999 -99.9 -99.99 -9.99
2019/09/21 10:06 PDT    4.16   4.33    2  107    3  72.3  71.8 1015.6 -9.9 -9.999 -99.9 -99.99 -9.99
2019/09/21 10:12 PDT    4.10   4.28    3   79    4  72.5  71.8 1015.6 -9.9 -9.999 -99.9 -99.99 -9.99
2019/09/21 10:18 PDT    4.03   4.23    2   88    3  73.2  71.8 1015.6 -9.9 -9.999 -99.9 -99.99 -9.99
2019/09/21 10:24 PDT    3.97   4.18    2  121    3  74.1  71.8 1015.6 -9.9 -9.999 -99.9 -99.99 -9.99
2019/09/21 10:30 PDT    3.92   4.14    3  100    3  74.5  71.8 1015.5 -9.9 -9.999 -99.9 -99.99 -9.99
2019/09/21 10:36 PDT    3.86   4.11    2   83    3  75.6  71.8 1015.5 -9.9 -9.999 -99.9 -99.99 -9.99
2019/09/21 10:42 PDT    3.81   4.08    2   83    3  75.9  71.8 1015.5 -9.9 -9.999 -99.9 -99.99 -9.99
2019/09/21 10:48 PDT    3.77   4.04    3  137    4  75.9  71.8 1015.5 -9.9 -9.999 -99.9 -99.99 -9.99
2019/09/21 10:54 PDT    3.72   4.01    2  131    4  76.6  72.0 1015.5 -9.9 -9.999 -99.9 -99.99 -9.99
2019/09/21 11:00 PDT    3.69   3.98    3  113    4  76.5  72.0 1015.4 -9.9 -9.999 -99.9 -99.99 -9.99
2019/09/21 11:06 PDT    3.65   3.95    1  184    5  77.4  72.0 1015.4 -9.9 -9.999 -99.9 -99.99 -9.99
2019/09/21 11:12 PDT    3.62   3.92    2  171    4  77.4  72.0 1015.3 -9.9 -9.999 -99.9 -99.99 -9.99
2019/09/21 11:18 PDT    3.60   3.90    1  160    5  77.4  72.0 1015.3 -9.9 -9.999 -99.9 -99.99 -9.99
2019/09/21 11:24 PDT    3.58   3.89    2  228    3  77.2  72.0 1015.3 -9.9 -9.999 -99.9 -99.99 -9.99
2019/09/21 11:30 PDT    3.56   3.88    2  276    3  76.8  72.0 1015.1 -9.9 -9.999 -99.9 -99.99 -9.99
2019/09/21 11:36 PDT    3.55   3.87    2  263    3  76.8  72.0 1015.1 -9.9 -9.999 -99.9 -99.99 -9.99
2019/09/21 11:42 PDT    3.54   3.86    1  317    2  77.2  72.0 1015.0 -9.9 -9.999 -99.9 -99.99 -9.99
2019/09/21 11:48 PDT    3.54   3.87    1  256    2  77.7  72.0 1015.0 -9.9 -9.999 -99.9 -99.99 -9.99
2019/09/21 11:54 PDT    3.54   3.88    3  343    5  77.7  72.0 1014.9 -9.9 -9.999 -99.9 -99.99 -9.99
2019/09/21 12:00 PDT    3.55   3.90    4  349    5  78.1  72.0 1014.9 -9.9 -9.999 -99.9 -99.99 -9.99
2019/09/21 12:06 PDT    3.56   3.93    3   34    6  78.4  72.0 1014.9 -9.9 -9.999 -99.9 -99.99 -9.99
2019/09/21 12:12 PDT    3.58   3.96    3   15    8  78.3  72.0 1014.9 -9.9 -9.999 -99.9 -99.99 -9.99
2019/09/21 12:18 PDT    3.60   4.00    2  328    3  78.4  71.8 1014.8 -9.9 -9.999 -99.9 -99.99 -9.99
2019/09/21 12:24 PDT    3.63   4.05    1  301    4  78.8  71.8 1014.8 -9.9 -9.999 -99.9 -99.99 -9.99
2019/09/21 12:30 PDT    3.66   4.11    1  254    3  79.3  71.8 1014.7 -9.9 -9.999 -99.9 -99.99 -9.99
2019/09/21 12:36 PDT    3.70   4.17    1  268    2  80.2  71.8 1014.6 -9.9 -9.999 -99.9 -99.99 -9.99
2019/09/21 12:42 PDT    3.75   4.23    1  288    2  80.1  71.8 1014.5 -9.9 -9.999 -99.9 -99.99 -9.99
2019/09/21 12:48 PDT    3.80   4.30    3  348    6  79.7  71.8 1014.5 -9.9 -9.999 -99.9 -99.99 -9.99
2019/09/21 12:54 PDT    3.86   4.37    3  334    4  79.5  71.8 1014.4 -9.9 -9.999 -99.9 -99.99 -9.99
2019/09/21 13:00 PDT    3.92   4.44    2  354    3  79.7  71.8 1014.3 -9.9 -9.999 -99.9 -99.99 -9.99
2019/09/21 13:06 PDT    3.99   4.51    1  334    4  80.1  71.8 1014.2 -9.9 -9.999 -99.9 -99.99 -9.99
2019/09/21 13:12 PDT    4.06   4.59    2   33    4  80.2  71.8 1014.2 -9.9 -9.999 -99.9 -99.99 -9.99
2019/09/21 13:18 PDT    4.14   4.67    4  343    6  80.2  71.8 1014.1 -9.9 -9.999 -99.9 -99.99 -9.99
2019/09/21 13:24 PDT    4.23   4.75    2  334    5  80.6  72.0 1014.0 -9.9 -9.999 -99.9 -99.99 -9.99
2019/09/21 13:30 PDT    4.32   4.84    4  333    5  80.4  72.0 1013.9 -9.9 -9.999 -99.9 -99.99 -9.99
2019/09/21 13:36 PDT    4.41   4.93    4  328    6  80.4  72.0 1013.9 -9.9 -9.999 -99.9 -99.99 -9.99
2019/09/21 13:42 PDT    4.51   5.02    5  320    7  80.4  72.0 1013.8 -9.9 -9.999 -99.9 -99.99 -9.99
2019/09/21 13:48 PDT    4.62   5.12    6  313    7  80.4  72.0 1013.7 -9.9 -9.999 -99.9 -99.99 -9.99
2019/09/21 13:54 PDT    4.73   5.21    5  294    8  80.4  72.0 1013.6 -9.9 -9.999 -99.9 -99.99 -9.99
2019/09/21 14:00 PDT    4.84   5.31    4  291    7  80.8  72.0 1013.5 -9.9 -9.999 -99.9 -99.99 -9.99
2019/09/21 14:06 PDT    4.96   5.40    4  341    7  81.3  72.0 1013.5 -9.9 -9.999 -99.9 -99.99 -9.99
2019/09/21 14:12 PDT    5.07   5.49    6  328    8  81.3  72.0 1013.5 -9.9 -9.999 -99.9 -99.99 -9.99
2019/09/21 14:18 PDT    5.20   5.57    5  339    8  81.5  72.0 1013.4 -9.9 -9.999 -99.9 -99.99 -9.99
2019/09/21 14:24 PDT    5.32   5.66    5  301    9  81.3  72.0 1013.4 -9.9 -9.999 -99.9 -99.99 -9.99
2019/09/21 14:30 PDT    5.44   5.75    7  320    9  81.5  72.0 1013.3 -9.9 -9.999 -99.9 -99.99 -9.99
2019/09/21 14:36 PDT    5.57   5.83    8  313   11  81.3  72.0 1013.2 -9.9 -9.999 -99.9 -99.99 -9.99
2019/09/21 14:42 PDT    5.70   5.91    6  305   10  81.5  72.0 1013.2 -9.9 -9.999 -99.9 -99.99 -9.99
2019/09/21 14:48 PDT    5.82   6.00    8  323   12  81.3  72.0 1013.2 -9.9 -9.999 -99.9 -99.99 -9.99
2019/09/21 14:54 PDT    5.95   6.09    7  301    9  81.5  72.0 1013.1 -9.9 -9.999 -99.9 -99.99 -9.99
2019/09/21 15:00 PDT    6.07   6.18    8  313   11  81.5  72.0 1013.0 -9.9 -9.999 -99.9 -99.99 -9.99
2019/09/21 15:06 PDT    6.20   6.28    9  303   10  81.7  72.0 1012.9 -9.9 -9.999 -99.9 -99.99 -9.99
2019/09/21 15:12 PDT    6.32   6.37    6  326   10  81.7  72.0 1012.9 -9.9 -9.999 -99.9 -99.99 -9.99
2019/09/21 15:18 PDT    6.44   6.47    7  299   10  82.0  72.0 1012.8 -9.9 -9.999 -99.9 -99.99 -9.99
2019/09/21 15:24 PDT    6.55   6.57    7  309    9  82.2  71.8 1012.8 -9.9 -9.999 -99.9 -99.99 -9.99
2019/09/21 15:30 PDT    6.66   6.65    9  295   11  82.2  71.8 1012.7 -9.9 -9.999 -99.9 -99.99 -9.99
2019/09/21 15:36 PDT    6.77   6.74    8  294   11  82.4  71.8 1012.6 -9.9 -9.999 -99.9 -99.99 -9.99
2019/09/21 15:42 PDT    6.88   6.83    8  327   10  82.6  71.8 1012.5 -9.9 -9.999 -99.9 -99.99 -9.99
2019/09/21 15:48 PDT    6.98   6.91    8  316   10  82.6  71.8 1012.5 -9.9 -9.999 -99.9 -99.99 -9.99
2019/09/21 15:54 PDT    7.07   6.99   10  307   11  82.6  71.8 1012.4 -9.9 -9.999 -99.9 -99.99 -9.99
2019/09/21 16:00 PDT    7.16   7.07    7  314   11  82.6  71.8 1012.4 -9.9 -9.999 -99.9 -99.99 -9.99
2019/09/21 16:06 PDT    7.25   7.15    9  306   11  82.6  71.8 1012.4 -9.9 -9.999 -99.9 -99.99 -9.99
2019/09/21 16:12 PDT    7.33   7.22   10  311   11  82.8  72.0 1012.4 -9.9 -9.999 -99.9 -99.99 -9.99
2019/09/21 16:18 PDT    7.41   7.29   11  305   13  82.4  72.0 1012.3 -9.9 -9.999 -99.9 -99.99 -9.99
2019/09/21 16:24 PDT    7.47   7.36   11  309   13  82.2  71.8 1012.3 -9.9 -9.999 -99.9 -99.99 -9.99
2019/09/21 16:30 PDT    7.54   7.42   12  306   13  81.9  71.8 1012.3 -9.9 -9.999 -99.9 -99.99 -9.99
2019/09/21 16:36 PDT    7.60   7.47   11  305   13  81.9  71.8 1012.3 -9.9 -9.999 -99.9 -99.99 -9.99
2019/09/21 16:42 PDT    7.65   7.53   11  307   13  81.9  71.8 1012.3 -9.9 -9.999 -99.9 -99.99 -9.99
2019/09/21 16:48 PDT    7.69   7.59   12  306   15  81.3  71.8 1012.3 -9.9 -9.999 -99.9 -99.99 -9.99
2019/09/21 16:54 PDT    7.73   7.63   13  302   15  80.8  71.8 1012.4 -9.9 -9.999 -99.9 -99.99 -9.99
2019/09/21 17:00 PDT    7.76   7.66   13  305   15  80.6  71.8 1012.4 -9.9 -9.999 -99.9 -99.99 -9.99
2019/09/21 17:06 PDT    7.79   7.68   12  303   15  80.8  71.8 1012.3 -9.9 -9.999 -99.9 -99.99 -9.99
2019/09/21 17:12 PDT    7.81   7.71   13  304   14  80.8  71.8 1012.3 -9.9 -9.999 -99.9 -99.99 -9.99
2019/09/21 17:18 PDT    7.83   7.72   13  304   15  80.8  72.0 1012.4 -9.9 -9.999 -99.9 -99.99 -9.99
2019/09/21 17:24 PDT    7.84   7.74   14  304   15  80.4  72.0 1012.4 -9.9 -9.999 -99.9 -99.99 -9.99
2019/09/21 17:30 PDT    7.84   7.76   14  305   16  80.1  72.0 1012.3 -9.9 -9.999 -99.9 -99.99 -9.99
2019/09/21 17:36 PDT    7.84   7.77   14  303   16  80.1  72.0 1012.4 -9.9 -9.999 -99.9 -99.99 -9.99
2019/09/21 17:42 PDT    7.83   7.78   15  305   17  79.7  72.0 1012.4 -9.9 -9.999 -99.9 -99.99 -9.99
2019/09/21 17:48 PDT    7.82   7.81   15  304   17  79.5  72.1 1012.4 -9.9 -9.999 -99.9 -99.99 -9.99
2019/09/21 17:54 PDT    7.80   7.82   13  302   16  79.5  72.1 1012.5 -9.9 -9.999 -99.9 -99.99 -9.99
2019/09/21 18:00 PDT    7.77   7.81   10  296   14  79.3  72.1 1012.5 -9.9 -9.999 -99.9 -99.99 -9.99
2019/09/21 18:06 PDT    7.74   7.80   13  291   15  79.7  72.3 1012.5 -9.9 -9.999 -99.9 -99.99 -9.99
2019/09/21 18:12 PDT    7.70   7.78   10  293   15  79.2  72.3 1012.6 -9.9 -9.999 -99.9 -99.99 -9.99
2019/09/21 18:18 PDT    7.66   7.75   14  290   16  79.5  72.5 1012.6 -9.9 -9.999 -99.9 -99.99 -9.99
2019/09/21 18:24 PDT    7.61   7.71   13  291   16  79.0  72.5 1012.6 -9.9 -9.999 -99.9 -99.99 -9.99
2019/09/21 18:30 PDT    7.56   7.66   13  293   15  78.8  72.5 1012.6 -9.9 -9.999 -99.9 -99.99 -9.99
2019/09/21 18:36 PDT    7.50   7.60   11  290   16  78.4  72.5 1012.7 -9.9 -9.999 -99.9 -99.99 -9.99
2019/09/21 18:42 PDT    7.44   7.52   12  285   15  78.3  72.7 1012.7 -9.9 -9.999 -99.9 -99.99 -9.99
2019/09/21 18:48 PDT    7.37   7.43    9  282   12  77.5  72.7 1012.8 -9.9 -9.999 -99.9 -99.99 -9.99
2019/09/21 18:54 PDT    7.29   7.36   10  279   12  77.0  72.7 1012.8 -9.9 -9.999 -99.9 -99.99 -9.99
2019/09/21 19:00 PDT    7.21   7.27    9  273    9  76.3  72.7 1012.8 -9.9 -9.999 -99.9 -99.99 -9.99
2019/09/21 19:06 PDT    7.13   7.19    7  282   11  75.7  72.7 1012.8 -9.9 -9.999 -99.9 -99.99 -9.99
2019/09/21 19:12 PDT    7.04   7.09    6  285    9  75.6  72.9 1012.8 -9.9 -9.999 -99.9 -99.99 -9.99
2019/09/21 19:18 PDT    6.95   7.01    7  276   10  75.2  72.9 1012.9 -9.9 -9.999 -99.9 -99.99 -9.99
2019/09/21 19:24 PDT    6.85   6.94    8  278   10  75.6  72.9 1012.8 -9.9 -9.999 -99.9 -99.99 -9.99
2019/09/21 19:30 PDT    6.75   6.85    9  287   11  75.2  72.9 1012.9 -9.9 -9.999 -99.9 -99.99 -9.99
2019/09/21 19:36 PDT    6.64   6.76    9  293   10  74.8  72.9 1012.8 -9.9 -9.999 -99.9 -99.99 -9.99
2019/09/21 19:42 PDT    6.53   6.66    9  296   11  74.8  72.9 1012.9 -9.9 -9.999 -99.9 -99.99 -9.99
2019/09/21 19:48 PDT    6.41   6.55    9  300   11  74.7  72.9 1012.9 -9.9 -9.999 -99.9 -99.99 -9.99
2019/09/21 19:54 PDT    6.29   6.44    8  295   10  74.1  72.9 1013.0 -9.9 -9.999 -99.9 -99.99 -9.99
2019/09/21 20:00 PDT    6.17   6.33    8  296    9  73.8  72.9 1013.0 -9.9 -9.999 -99.9 -99.99 -9.99
2019/09/21 20:06 PDT    6.04   6.21    7  296    8  73.6  72.9 1013.0 -9.9 -9.999 -99.9 -99.99 -9.99
2019/09/21 20:12 PDT    5.91   6.10    7  302    8  73.4  72.9 1013.1 -9.9 -9.999 -99.9 -99.99 -9.99
2019/09/21 20:18 PDT    5.78   5.97    6  312    7  72.5  72.9 1013.1 -9.9 -9.999 -99.9 -99.99 -9.99
2019/09/21 20:24 PDT    5.65   5.85    6  325    7  71.8  72.9 1013.2 -9.9 -9.999 -99.9 -99.99 -9.99
2019/09/21 20:30 PDT    5.51   5.74    6  336    7  72.1  72.9 1013.2 -9.9 -9.999 -99.9 -99.99 -9.99
2019/09/21 20:36 PDT    5.37   5.62    6  331    8  71.2  72.9 1013.3 -9.9 -9.999 -99.9 -99.99 -9.99
2019/09/21 20:42 PDT    5.23   5.49    4  326    6  70.7  72.9 1013.5 -9.9 -9.999 -99.9 -99.99 -9.99
2019/09/21 20:48 PDT    5.09   5.36    3  334    4  71.8  73.0 1013.5 -9.9 -9.999 -99.9 -99.99 -9.99
2019/09/21 20:54 PDT    4.94   5.23    3  332    5  73.0  73.0 1013.6 -9.9 -9.999 -99.9 -99.99 -9.99
2019/09/21 21:00 PDT    4.80   5.09    3  335    4  73.2  73.0 1013.6 -9.9 -9.999 -99.9 -99.99 -9.99
2019/09/21 21:06 PDT    4.65   4.95    3  346    4  73.2  73.0 1013.6 -9.9 -9.999 -99.9 -99.99 -9.99
2019/09/21 21:12 PDT    4.51   4.81    4    0    5  73.2  73.0 1013.6 -9.9 -9.999 -99.9 -99.99 -9.99
2019/09/21 21:18 PDT    4.36   4.66    3  342    4  73.2  73.0 1013.7 -9.9 -9.999 -99.9 -99.99 -9.99
2019/09/21 21:24 PDT    4.22   4.51    4    1    5  71.1  73.0 1013.7 -9.9 -9.999 -99.9 -99.99 -9.99
2019/09/21 21:30 PDT    4.07   4.37    5    2    6  69.3  73.0 1013.7 -9.9 -9.999 -99.9 -99.99 -9.99
2019/09/21 21:36 PDT    3.93   4.23    5  352    7  68.2  73.0 1013.8 -9.9 -9.999 -99.9 -99.99 -9.99
2019/09/21 21:42 PDT    3.79   4.09    5  328    7  67.5  73.0 1013.8 -9.9 -9.999 -99.9 -99.99 -9.99
2019/09/21 21:48 PDT    3.65   3.95    4  320    5  67.5  73.0 1013.9 -9.9 -9.999 -99.9 -99.99 -9.99
2019/09/21 21:54 PDT    3.51   3.82    3  235    5  67.3  73.0 1014.0 -9.9 -9.999 -99.9 -99.99 -9.99
2019/09/21 22:00 PDT    3.38   3.69    3  279    4  67.3  73.0 1014.0 -9.9 -9.999 -99.9 -99.99 -9.99
2019/09/21 22:06 PDT    3.25   3.57    3  288    4  67.1  73.0 1014.1 -9.9 -9.999 -99.9 -99.99 -9.99
2019/09/21 22:12 PDT    3.12   3.45    3  327    4  66.7  73.0 1014.0 -9.9 -9.999 -99.9 -99.99 -9.99
2019/09/21 22:18 PDT    3.00   3.33    2  348    4  66.6  73.0 1013.9 -9.9 -9.999 -99.9 -99.99 -9.99
2019/09/21 22:24 PDT    2.87   3.22    2  327    4  66.7  73.0 1013.9 -9.9 -9.999 -99.9 -99.99 -9.99
2019/09/21 22:30 PDT    2.76   3.10    3  343    3  66.2  73.0 1013.9 -9.9 -9.999 -99.9 -99.99 -9.99
2019/09/21 22:36 PDT    2.64   2.99    3  332    3  66.4  73.0 1013.9 -9.9 -9.999 -99.9 -99.99 -9.99
2019/09/21 22:42 PDT    2.53   2.87    3  332    4  66.0  73.0 1013.9 -9.9 -9.999 -99.9 -99.99 -9.99
2019/09/21 22:48 PDT    2.43   2.75    2  350    3  65.7  73.0 1013.9 -9.9 -9.999 -99.9 -99.99 -9.99
2019/09/21 22:54 PDT    2.33   2.63    1  325    3  65.8  73.0 1013.9 -9.9 -9.999 -99.9 -99.99 -9.99
2019/09/21 23:00 PDT    2.23   2.52    1  328    2  65.7  73.0 1013.8 -9.9 -9.999 -99.9 -99.99 -9.99
2019/09/21 23:06 PDT    2.14   2.40    0  320    1  65.7  73.0 1013.8 -9.9 -9.999 -99.9 -99.99 -9.99
2019/09/21 23:12 PDT    2.05   2.29    0  332    1  65.7  73.0 1013.8 -9.9 -9.999 -99.9 -99.99 -9.99
2019/09/21 23:18 PDT    1.96   2.19    0  340    1  65.8  73.0 1013.8 -9.9 -9.999 -99.9 -99.99 -9.99
2019/09/21 23:24 PDT    1.88   2.09    0  340    0  65.5  73.0 1013.8 -9.9 -9.999 -99.9 -99.99 -9.99
2019/09/21 23:30 PDT    1.81   2.00    1  114    2  65.3  73.0 1013.7 -9.9 -9.999 -99.9 -99.99 -9.99
2019/09/21 23:36 PDT    1.74   1.91    2  123    2  65.3  73.0 1013.7 -9.9 -9.999 -99.9 -99.99 -9.99
2019/09/21 23:42 PDT    1.67   1.83    2  133    3  65.8  73.0 1013.6 -9.9 -9.999 -99.9 -99.99 -9.99
2019/09/21 23:48 PDT    1.61   1.76    2  128    3  66.2  73.0 1013.6 -9.9 -9.999 -99.9 -99.99 -9.99
2019/09/21 23:54 PDT    1.55   1.70    3  131    3  66.4  73.0 1013.5 -9.9 -9.999 -99.9 -99.99 -9.99
2019/09/22 00:00 PDT    1.49   1.63    4  121    4  66.6  73.0 1013.5 -9.9 -9.999 -99.9 -99.99 -9.99
2019/09/22 00:06 PDT    1.44   1.57    4  123    4  66.6  73.0 1013.5 -9.9 -9.999 -99.9 -99.99 -9.99
2019/09/22 00:12 PDT    1.40   1.51    3  125    4  66.4  73.0 1013.5 -9.9 -9.999 -99.9 -99.99 -9.99
2019/09/22 00:18 PDT    1.36   1.46    3  118    4  66.4  73.0 1013.4 -9.9 -9.999 -99.9 -99.99 -9.99
2019/09/22 00:24 PDT    1.32   1.40    4  122    5  66.2  73.0 1013.4 -9.9 -9.999 -99.9 -99.99 -9.99
2019/09/22 00:30 PDT    1.29   1.35    3  125    5  65.8  73.0 1013.3 -9.9 -9.999 -99.9 -99.99 -9.99
2019/09/22 00:36 PDT    1.26   1.31    3  135    4  65.8  73.0 1013.3 -9.9 -9.999 -99.9 -99.99 -9.99
2019/09/22 00:42 PDT    1.24   1.26    2  139    4  65.7  73.0 1013.3 -9.9 -9.999 -99.9 -99.99 -9.99
2019/09/22 00:48 PDT    1.23   1.23    2  141    2  65.7  73.0 1013.4 -9.9 -9.999 -99.9 -99.99 -9.99
2019/09/22 00:54 PDT    1.21   1.21    1  143    2  65.8  73.0 1013.4 -9.9 -9.999 -99.9 -99.99 -9.99
2019/09/22 01:00 PDT    1.21   1.19    1  164    1  65.8  73.0 1013.5 -9.9 -9.999 -99.9 -99.99 -9.99
2019/09/22 01:06 PDT    1.20   1.19    0  167    1  66.0  73.0 1013.4 -9.9 -9.999 -99.9 -99.99 -9.99
2019/09/22 01:12 PDT    1.21   1.20    2  257    3  66.0  73.0 1013.4 -9.9 -9.999 -99.9 -99.99 -9.99
2019/09/22 01:18 PDT    1.22   1.22    2  242    3  65.7  72.9 1013.4 -9.9 -9.999 -99.9 -99.99 -9.99
2019/09/22 01:24 PDT    1.23   1.25    2  241    3  65.1  72.9 1013.4 -9.9 -9.999 -99.9 -99.99 -9.99
2019/09/22 01:30 PDT    1.25   1.29    2  261    2  65.7  72.9 1013.4 -9.9 -9.999 -99.9 -99.99 -9.99
2019/09/22 01:36 PDT    1.28   1.34    2  236    3  64.9  72.9 1013.4 -9.9 -9.999 -99.9 -99.99 -9.99
2019/09/22 01:42 PDT    1.31   1.39    3  232    3  64.8  72.9 1013.4 -9.9 -9.999 -99.9 -99.99 -9.99
2019/09/22 01:48 PDT    1.35   1.45    2  217    3  64.6  72.9 1013.4 -9.9 -9.999 -99.9 -99.99 -9.99
2019/09/22 01:54 PDT    1.39   1.51    2  215    3  64.6  72.9 1013.4 -9.9 -9.999 -99.9 -99.99 -9.99
2019/09/22 02:00 PDT    1.44   1.57    3  213    4  64.6  72.9 1013.4 -9.9 -9.999 -99.9 -99.99 -9.99
2019/09/22 02:06 PDT    1.50   1.63    2  235    3  64.6  72.9 1013.4 -9.9 -9.999 -99.9 -99.99 -9.99
2019/09/22 02:12 PDT    1.56   1.70    2  236    2  64.8  72.9 1013.3 -9.9 -9.999 -99.9 -99.99 -9.99
2019/09/22 02:18 PDT    1.62   1.76    2  256    3  65.1  72.9 1013.3 -9.9 -9.999 -99.9 -99.99 -9.99
2019/09/22 02:24 PDT    1.69   1.83    3  268    3  64.6  72.9 1013.3 -9.9 -9.999 -99.9 -99.99 -9.99
2019/09/22 02:30 PDT    1.77   1.91    2  273    3  63.5  72.9 1013.2 -9.9 -9.999 -99.9 -99.99 -9.99
2019/09/22 02:36 PDT    1.85   1.99    2  265    3  63.3  72.9 1013.2 -9.9 -9.999 -99.9 -99.99 -9.99
2019/09/22 02:42 PDT    1.93   2.07    3  260    3  63.7  72.9 1013.2 -9.9 -9.999 -99.9 -99.99 -9.99
2019/09/22 02:48 PDT    2.02   2.16    2  271    3  63.7  72.9 1013.2 -9.9 -9.999 -99.9 -99.99 -9.99
2019/09/22 02:54 PDT    2.11   2.26    2  271    3  63.7  72.9 1013.2 -9.9 -9.999 -99.9 -99.99 -9.99
2019/09/22 03:00 PDT    2.20   2.36    2  280    3  63.7  72.7 1013.2 -9.9 -9.999 -99.9 -99.99 -9.99
2019/09/22 03:06 PDT    2.30   2.47    2  274    3  63.3  72.7 1013.2 -9.9 -9.999 -99.9 -99.99 -9.99
2019/09/22 03:12 PDT    2.40   2.58    2  271    2  63.1  72.7 1013.1 -9.9 -9.999 -99.9 -99.99 -9.99
2019/09/22 03:18 PDT    2.50   2.70    2  267    3  63.1  72.7 1013.1 -9.9 -9.999 -99.9 -99.99 -9.99
2019/09/22 03:24 PDT    2.61 -99.99 -999 -999 -999 -99.9 -99.9 -999.9 -9.9 -9.999 -99.9 -99.99 -9.99
2019/09/22 03:30 PDT    2.71 -99.99 -999 -999 -999 -99.9 -99.9 -999.9 -9.9 -9.999 -99.9 -99.99 -9.99
2019/09/22 03:36 PDT    2.82 -99.99 -999 -999 -999 -99.9 -99.9 -999.9 -9.9 -9.999 -99.9 -99.99 -9.99
2019/09/22 03:42 PDT    2.93 -99.99 -999 -999 -999 -99.9 -99.9 -999.9 -9.9 -9.999 -99.9 -99.99 -9.99
2019/09/22 03:48 PDT    3.03 -99.99 -999 -999 -999 -99.9 -99.9 -999.9 -9.9 -9.999 -99.9 -99.99 -9.99
2019/09/22 03:54 PDT    3.14 -99.99 -999 -999 -999 -99.9 -99.9 -999.9 -9.9 -9.999 -99.9 -99.99 -9.99
2019/09/22 04:00 PDT    3.25 -99.99 -999 -999 -999 -99.9 -99.9 -999.9 -9.9 -9.999 -99.9 -99.99 -9.99
2019/09/22 04:06 PDT    3.36 -99.99 -999 -999 -999 -99.9 -99.9 -999.9 -9.9 -9.999 -99.9 -99.99 -9.99
2019/09/22 04:12 PDT    3.47 -99.99 -999 -999 -999 -99.9 -99.9 -999.9 -9.9 -9.999 -99.9 -99.99 -9.99
2019/09/22 04:18 PDT    3.57 -99.99 -999 -999 -999 -99.9 -99.9 -999.9 -9.9 -9.999 -99.9 -99.99 -9.99
2019/09/22 04:24 PDT    3.68 -99.99 -999 -999 -999 -99.9 -99.9 -999.9 -9.9 -9.999 -99.9 -99.99 -9.99
2019/09/22 04:30 PDT    3.79 -99.99 -999 -999 -999 -99.9 -99.9 -999.9 -9.9 -9.999 -99.9 -99.99 -9.99
2019/09/22 04:36 PDT    3.89 -99.99 -999 -999 -999 -99.9 -99.9 -999.9 -9.9 -9.999 -99.9 -99.99 -9.99
2019/09/22 04:42 PDT    3.99 -99.99 -999 -999 -999 -99.9 -99.9 -999.9 -9.9 -9.999 -99.9 -99.99 -9.99
2019/09/22 04:48 PDT    4.10 -99.99 -999 -999 -999 -99.9 -99.9 -999.9 -9.9 -9.999 -99.9 -99.99 -9.99
2019/09/22 04:54 PDT    4.20 -99.99 -999 -999 -999 -99.9 -99.9 -999.9 -9.9 -9.999 -99.9 -99.99 -9.99
2019/09/22 05:00 PDT    4.29 -99.99 -999 -999 -999 -99.9 -99.9 -999.9 -9.9 -9.999 -99.9 -99.99 -9.99
2019/09/22 05:06 PDT    4.39 -99.99 -999 -999 -999 -99.9 -99.9 -999.9 -9.9 -9.999 -99.9 -99.99 -9.99
2019/09/22 05:12 PDT    4.49 -99.99 -999 -999 -999 -99.9 -99.9 -999.9 -9.9 -9.999 -99.9 -99.99 -9.99
2019/09/22 05:18 PDT    4.58 -99.99 -999 -999 -999 -99.9 -99.9 -999.9 -9.9 -9.999 -99.9 -99.99 -9.99
2019/09/22 05:24 PDT    4.67 -99.99 -999 -999 -999 -99.9 -99.9 -999.9 -9.9 -9.999 -99.9 -99.99 -9.99
2019/09/22 05:30 PDT    4.76 -99.99 -999 -999 -999 -99.9 -99.9 -999.9 -9.9 -9.999 -99.9 -99.99 -9.99
2019/09/22 05:36 PDT    4.85 -99.99 -999 -999 -999 -99.9 -99.9 -999.9 -9.9 -9.999 -99.9 -99.99 -9.99
2019/09/22 05:42 PDT    4.94 -99.99 -999 -999 -999 -99.9 -99.9 -999.9 -9.9 -9.999 -99.9 -99.99 -9.99
2019/09/22 05:48 PDT    5.02 -99.99 -999 -999 -999 -99.9 -99.9 -999.9 -9.9 -9.999 -99.9 -99.99 -9.99
2019/09/22 05:54 PDT    5.10 -99.99 -999 -999 -999 -99.9 -99.9 -999.9 -9.9 -9.999 -99.9 -99.99 -9.99
2019/09/22 06:00 PDT    5.18 -99.99 -999 -999 -999 -99.9 -99.9 -999.9 -9.9 -9.999 -99.9 -99.99 -9.99
2019/09/22 06:06 PDT    5.26 -99.99 -999 -999 -999 -99.9 -99.9 -999.9 -9.9 -9.999 -99.9 -99.99 -9.99
2019/09/22 06:12 PDT    5.34 -99.99 -999 -999 -999 -99.9 -99.9 -999.9 -9.9 -9.999 -99.9 -99.99 -9.99
2019/09/22 06:18 PDT    5.41 -99.99 -999 -999 -999 -99.9 -99.9 -999.9 -9.9 -9.999 -99.9 -99.99 -9.99
2019/09/22 06:24 PDT    5.48 -99.99 -999 -999 -999 -99.9 -99.9 -999.9 -9.9 -9.999 -99.9 -99.99 -9.99
2019/09/22 06:30 PDT    5.55 -99.99 -999 -999 -999 -99.9 -99.9 -999.9 -9.9 -9.999 -99.9 -99.99 -9.99
2019/09/22 06:36 PDT    5.61 -99.99 -999 -999 -999 -99.9 -99.9 -999.9 -9.9 -9.999 -99.9 -99.99 -9.99
2019/09/22 06:42 PDT    5.67 -99.99 -999 -999 -999 -99.9 -99.9 -999.9 -9.9 -9.999 -99.9 -99.99 -9.99
2019/09/22 06:48 PDT    5.73 -99.99 -999 -999 -999 -99.9 -99.9 -999.9 -9.9 -9.999 -99.9 -99.99 -9.99
2019/09/22 06:54 PDT    5.79 -99.99 -999 -999 -999 -99.9 -99.9 -999.9 -9.9 -9.999 -99.9 -99.99 -9.99
2019/09/22 07:00 PDT    5.84 -99.99 -999 -999 -999 -99.9 -99.9 -999.9 -9.9 -9.999 -99.9 -99.99 -9.99
2019/09/22 07:06 PDT    5.89 -99.99 -999 -999 -999 -99.9 -99.9 -999.9 -9.9 -9.999 -99.9 -99.99 -9.99
2019/09/22 07:12 PDT    5.93 -99.99 -999 -999 -999 -99.9 -99.9 -999.9 -9.9 -9.999 -99.9 -99.99 -9.99
2019/09/22 07:18 PDT    5.97 -99.99 -999 -999 -999 -99.9 -99.9 -999.9 -9.9 -9.999 -99.9 -99.99 -9.99
2019/09/22 07:24 PDT    6.01 -99.99 -999 -999 -999 -99.9 -99.9 -999.9 -9.9 -9.999 -99.9 -99.99 -9.99
2019/09/22 07:30 PDT    6.04 -99.99 -999 -999 -999 -99.9 -99.9 -999.9 -9.9 -9.999 -99.9 -99.99 -9.99
2019/09/22 07:36 PDT    6.07 -99.99 -999 -999 -999 -99.9 -99.9 -999.9 -9.9 -9.999 -99.9 -99.99 -9.99
2019/09/22 07:42 PDT    6.09 -99.99 -999 -999 -999 -99.9 -99.9 -999.9 -9.9 -9.999 -99.9 -99.99 -9.99
2019/09/22 07:48 PDT    6.11 -99.99 -999 -999 -999 -99.9 -99.9 -999.9 -9.9 -9.999 -99.9 -99.99 -9.99
2019/09/22 07:54 PDT    6.12 -99.99 -999 -999 -999 -99.9 -99.9 -999.9 -9.9 -9.999 -99.9 -99.99 -9.99
2019/09/22 08:00 PDT    6.13 -99.99 -999 -999 -999 -99.9 -99.9 -999.9 -9.9 -9.999 -99.9 -99.99 -9.99
2019/09/22 08:06 PDT    6.13 -99.99 -999 -999 -999 -99.9 -99.9 -999.9 -9.9 -9.999 -99.9 -99.99 -9.99
2019/09/22 08:12 PDT    6.13 -99.99 -999 -999 -999 -99.9 -99.9 -999.9 -9.9 -9.999 -99.9 -99.99 -9.99
2019/09/22 08:18 PDT    6.12 -99.99 -999 -999 -999 -99.9 -99.9 -999.9 -9.9 -9.999 -99.9 -99.99 -9.99
2019/09/22 08:24 PDT    6.11 -99.99 -999 -999 -999 -99.9 -99.9 -999.9 -9.9 -9.999 -99.9 -99.99 -9.99
2019/09/22 08:30 PDT    6.10 -99.99 -999 -999 -999 -99.9 -99.9 -999.9 -9.9 -9.999 -99.9 -99.99 -9.99
2019/09/22 08:36 PDT    6.07 -99.99 -999 -999 -999 -99.9 -99.9 -999.9 -9.9 -9.999 -99.9 -99.99 -9.99
2019/09/22 08:42 PDT    6.05 -99.99 -999 -999 -999 -99.9 -99.9 -999.9 -9.9 -9.999 -99.9 -99.99 -9.99
2019/09/22 08:48 PDT    6.02 -99.99 -999 -999 -999 -99.9 -99.9 -999.9 -9.9 -9.999 -99.9 -99.99 -9.99
2019/09/22 08:54 PDT    5.98 -99.99 -999 -999 -999 -99.9 -99.9 -999.9 -9.9 -9.999 -99.9 -99.99 -9.99
2019/09/22 09:00 PDT    5.94 -99.99 -999 -999 -999 -99.9 -99.9 -999.9 -9.9 -9.999 -99.9 -99.99 -9.99
2019/09/22 09:06 PDT    5.90 -99.99 -999 -999 -999 -99.9 -99.9 -999.9 -9.9 -9.999 -99.9 -99.99 -9.99
2019/09/22 09:12 PDT    5.85 -99.99 -999 -999 -999 -99.9 -99.9 -999.9 -9.9 -9.999 -99.9 -99.99 -9.99
2019/09/22 09:18 PDT    5.80 -99.99 -999 -999 -999 -99.9 -99.9 -999.9 -9.9 -9.999 -99.9 -99.99 -9.99
2019/09/22 09:24 PDT    5.74 -99.99 -999 -999 -999 -99.9 -99.9 -999.9 -9.9 -9.999 -99.9 -99.99 -9.99
2019/09/22 09:30 PDT    5.68 -99.99 -999 -999 -999 -99.9 -99.9 -999.9 -9.9 -9.999 -99.9 -99.99 -9.99
2019/09/22 09:36 PDT    5.62 -99.99 -999 -999 -999 -99.9 -99.9 -999.9 -9.9 -9.999 -99.9 -99.99 -9.99